createdAt,value
2018-08-18T00:00:21.233Z,25.8
2018-08-18T00:01:11.776Z,25.8
2018-08-18T00:02:01.303Z,25.8
2018-08-18T00:02:51.701Z,25.8
2018-08-18T00:03:41.757Z,25.8
2018-08-18T00:04:31.554Z,25.8
2018-08-18T00:05:22.170Z,25.8
2018-08-18T00:06:11.684Z,25.8
2018-08-18T00:07:02.000Z,25.8
2018-08-18T00:07:51.826Z,25.8
2018-08-18T00:08:41.104Z,25.8
2018-08-18T00:09:32.242Z,25.8
2018-08-18T00:10:22.680Z,25.8
2018-08-18T00:11:11.754Z,25.8
2018-08-18T00:12:02.118Z,25.8
2018-08-18T00:12:52.187Z,25.8
2018-08-18T00:13:42.821Z,25.8
2018-08-18T00:14:32.343Z,25.8
2018-08-18T00:15:22.669Z,25.8
2018-08-18T00:16:12.135Z,25.8
2018-08-18T00:17:02.748Z,25.8
2018-08-18T00:17:52.545Z,25.8
2018-08-18T00:18:42.545Z,25.8
2018-08-18T00:37:36.261Z,25.7
2018-08-18T00:38:25.364Z,25.8
2018-08-18T00:39:15.981Z,25.7
2018-08-18T00:40:05.205Z,25.7
2018-08-18T00:40:55.822Z,25.7
2018-08-18T00:41:46.194Z,25.7
2018-08-18T00:42:35.381Z,25.7
2018-08-18T00:43:26.563Z,25.7
2018-08-18T00:44:16.127Z,25.7
2018-08-18T00:45:06.708Z,25.7
2018-08-18T00:45:56.525Z,25.7
2018-08-18T00:46:46.607Z,25.7
2018-08-18T00:47:36.965Z,25.7
2018-08-18T00:48:26.453Z,25.7
2018-08-18T00:49:16.551Z,25.7
2018-08-18T00:50:06.851Z,25.7
2018-08-18T00:50:56.697Z,25.7
2018-08-18T00:51:46.993Z,25.7
2018-08-18T00:52:36.763Z,25.7
2018-08-18T00:53:26.239Z,25.7
2018-08-18T00:54:17.230Z,25.7
2018-08-18T00:55:06.751Z,25.7
2018-08-18T00:55:57.341Z,25.7
2018-08-18T00:56:47.706Z,25.7
2018-08-18T00:57:36.918Z,25.7
2018-08-18T00:58:27.479Z,25.7
2018-08-18T00:59:17.852Z,25.7
2018-08-18T01:00:07.606Z,25.7
2018-08-18T01:00:57.148Z,25.7
2018-08-18T01:01:48.008Z,25.7
2018-08-18T01:02:37.840Z,25.7
2018-08-18T01:03:27.891Z,25.7
2018-08-18T01:04:17.326Z,25.7
2018-08-18T01:05:07.739Z,25.7
2018-08-18T01:05:58.311Z,25.7
2018-08-18T01:06:47.571Z,25.7
2018-08-18T01:07:37.883Z,25.7
2018-08-18T01:08:28.011Z,25.7
2018-08-18T01:09:18.239Z,25.7
2018-08-18T01:10:08.076Z,25.7
2018-08-18T01:10:59.699Z,25.7
2018-08-18T01:11:50.370Z,25.7
2018-08-18T01:12:40.451Z,25.7
2018-08-18T01:13:28.107Z,25.7
2018-08-18T01:14:20.918Z,25.7
2018-08-18T01:15:08.599Z,25.7
2018-08-18T01:15:58.759Z,25.7
2018-08-18T01:16:48.599Z,25.7
2018-08-18T01:17:38.613Z,25.7
2018-08-18T01:18:28.999Z,25.7
2018-08-18T01:19:18.752Z,25.7
2018-08-18T01:20:09.169Z,25.7
2018-08-18T01:20:59.464Z,25.7
2018-08-18T01:21:49.275Z,25.7
2018-08-18T01:22:38.795Z,25.7
2018-08-18T01:23:29.121Z,25.7
2018-08-18T01:24:19.799Z,25.7
2018-08-18T01:25:09.845Z,25.7
2018-08-18T01:25:59.318Z,25.7
2018-08-18T01:26:49.666Z,25.7
2018-08-18T01:27:40.055Z,25.7
2018-08-18T01:28:30.141Z,25.7
2018-08-18T01:29:19.884Z,25.7
2018-08-18T01:30:09.644Z,25.7
2018-08-18T01:30:59.444Z,25.7
2018-08-18T01:31:49.229Z,25.7
2018-08-18T01:32:40.153Z,25.7
2018-08-18T01:33:30.577Z,25.7
2018-08-18T01:34:20.571Z,25.7
2018-08-18T01:35:10.052Z,25.7
2018-08-18T01:36:00.433Z,25.7
2018-08-18T01:36:50.740Z,25.7
2018-08-18T01:37:38.835Z,25.7
2018-08-18T01:38:29.464Z,25.7
2018-08-18T01:39:20.083Z,25.7
2018-08-18T01:40:09.793Z,25.7
2018-08-18T01:41:00.443Z,25.6
2018-08-18T01:41:49.964Z,25.7
2018-08-18T01:42:39.141Z,25.6
2018-08-18T01:43:30.338Z,25.7
2018-08-18T01:44:21.045Z,25.7
2018-08-18T01:45:10.835Z,25.7
2018-08-18T01:46:00.539Z,25.6
2018-08-18T01:46:50.636Z,25.7
2018-08-18T01:47:40.660Z,25.7
2018-08-18T01:48:30.740Z,25.6
2018-08-18T01:49:21.090Z,25.7
2018-08-18T01:50:11.140Z,25.6
2018-08-18T01:51:01.527Z,25.7
2018-08-18T01:51:50.759Z,25.6
2018-08-18T01:52:41.038Z,25.6
2018-08-18T01:53:30.884Z,25.6
2018-08-18T01:54:21.202Z,25.6
2018-08-18T01:55:11.307Z,25.7
2018-08-18T01:56:02.169Z,25.6
2018-08-18T01:56:51.929Z,25.7
2018-08-18T01:57:42.033Z,25.6
2018-08-18T01:58:31.882Z,25.6
2018-08-18T01:59:21.655Z,25.6
2018-08-18T02:00:11.689Z,25.6
2018-08-18T02:01:02.083Z,25.7
2018-08-18T02:01:52.388Z,25.6
2018-08-18T02:02:42.461Z,25.6
2018-08-18T02:03:32.464Z,25.6
2018-08-18T02:04:22.017Z,25.6
2018-08-18T02:05:12.634Z,25.6
2018-08-18T02:06:02.445Z,25.6
2018-08-18T02:06:52.457Z,25.6
2018-08-18T02:07:43.150Z,25.6
2018-08-18T02:08:33.152Z,25.6
2018-08-18T02:09:22.384Z,25.6
2018-08-18T02:10:12.153Z,25.6
2018-08-18T02:11:03.084Z,25.6
2018-08-18T02:11:53.416Z,25.6
2018-08-18T02:12:42.405Z,25.6
2018-08-18T02:13:32.982Z,25.6
2018-08-18T02:14:23.072Z,25.6
2018-08-18T02:15:13.143Z,25.6
2018-08-18T02:16:03.685Z,25.6
2018-08-18T02:16:53.467Z,25.6
2018-08-18T02:17:43.856Z,25.6
2018-08-18T02:18:33.587Z,25.6
2018-08-18T02:19:22.533Z,25.6
2018-08-18T02:20:14.621Z,25.6
2018-08-18T02:21:04.072Z,25.6
2018-08-18T02:21:54.155Z,25.6
2018-08-18T02:22:44.214Z,25.6
2018-08-18T02:23:33.413Z,25.6
2018-08-18T02:24:23.819Z,25.6
2018-08-18T02:25:13.625Z,25.6
2018-08-18T02:26:03.017Z,25.6
2018-08-18T02:26:53.463Z,25.6
2018-08-18T02:27:43.569Z,25.6
2018-08-18T02:28:34.102Z,25.6
2018-08-18T02:29:23.598Z,25.6
2018-08-18T02:30:14.563Z,25.6
2018-08-18T02:31:04.350Z,25.6
2018-08-18T02:31:54.902Z,25.6
2018-08-18T02:32:43.869Z,25.6
2018-08-18T02:33:34.509Z,25.6
2018-08-18T02:34:24.592Z,25.6
2018-08-18T02:35:14.701Z,25.6
2018-08-18T02:36:04.490Z,25.6
2018-08-18T02:36:55.069Z,25.6
2018-08-18T02:37:45.513Z,25.6
2018-08-18T02:38:34.970Z,25.6
2018-08-18T02:39:24.730Z,25.6
2018-08-18T02:40:16.774Z,25.6
2018-08-18T02:41:04.292Z,25.6
2018-08-18T02:41:55.453Z,25.6
2018-08-18T02:42:45.635Z,25.6
2018-08-18T02:43:35.572Z,25.6
2018-08-18T02:44:25.360Z,25.6
2018-08-18T02:45:15.747Z,25.6
2018-08-18T02:46:05.564Z,25.6
2018-08-18T02:46:55.377Z,25.6
2018-08-18T02:47:45.407Z,25.6
2018-08-18T02:48:35.465Z,25.6
2018-08-18T02:49:25.510Z,25.6
2018-08-18T02:50:15.913Z,25.6
2018-08-18T02:51:05.883Z,25.6
2018-08-18T02:51:55.439Z,25.6
2018-08-18T02:52:45.973Z,25.6
2018-08-18T02:53:36.603Z,25.6
2018-08-18T02:54:26.637Z,25.6
2018-08-18T02:55:16.425Z,25.6
2018-08-18T02:56:06.496Z,25.6
2018-08-18T02:56:56.843Z,25.6
2018-08-18T02:57:46.742Z,25.5
2018-08-18T02:58:36.676Z,25.5
2018-08-18T02:59:26.768Z,25.6
2018-08-18T03:00:16.540Z,25.5
2018-08-18T03:01:06.616Z,25.5
2018-08-18T03:01:56.667Z,25.5
2018-08-18T03:02:47.355Z,25.5
2018-08-18T03:03:37.347Z,25.5
2018-08-18T03:04:27.154Z,25.5
2018-08-18T03:05:17.179Z,25.5
2018-08-18T03:06:07.242Z,25.5
2018-08-18T03:06:57.321Z,25.5
2018-08-18T03:07:48.164Z,25.5
2018-08-18T03:08:36.670Z,25.5
2018-08-18T03:09:27.904Z,25.5
2018-08-18T03:10:17.646Z,25.5
2018-08-18T03:11:07.718Z,25.5
2018-08-18T03:11:57.787Z,25.5
2018-08-18T03:12:47.817Z,25.5
2018-08-18T03:13:37.922Z,25.5
2018-08-18T03:14:27.948Z,25.5
2018-08-18T03:15:18.310Z,25.5
2018-08-18T03:16:08.078Z,25.5
2018-08-18T03:16:57.842Z,25.5
2018-08-18T03:17:48.240Z,25.5
2018-08-18T03:18:38.289Z,25.5
2018-08-18T03:19:28.337Z,25.5
2018-08-18T03:20:18.106Z,25.5
2018-08-18T03:21:07.914Z,25.5
2018-08-18T03:21:58.833Z,25.5
2018-08-18T03:22:48.584Z,25.5
2018-08-18T03:23:38.138Z,25.5
2018-08-18T03:24:28.205Z,25.4
2018-08-18T03:25:18.821Z,25.5
2018-08-18T03:26:09.150Z,25.4
2018-08-18T03:26:58.589Z,25.5
2018-08-18T03:27:48.693Z,25.5
2018-08-18T03:28:37.884Z,25.4
2018-08-18T03:29:28.229Z,25.4
2018-08-18T03:30:18.762Z,25.4
2018-08-18T03:31:08.725Z,25.4
2018-08-18T03:31:59.042Z,25.4
2018-08-18T03:32:48.775Z,25.4
2018-08-18T03:33:39.671Z,25.4
2018-08-18T03:34:28.891Z,25.4
2018-08-18T03:35:19.274Z,25.4
2018-08-18T03:36:09.003Z,25.4
2018-08-18T03:36:59.628Z,25.4
2018-08-18T03:37:49.953Z,25.4
2018-08-18T03:38:39.476Z,25.4
2018-08-18T03:39:29.572Z,25.4
2018-08-18T03:40:18.578Z,25.4
2018-08-18T03:41:09.199Z,25.4
2018-08-18T03:41:58.989Z,25.4
2018-08-18T03:42:49.037Z,25.4
2018-08-18T03:43:39.920Z,25.4
2018-08-18T03:44:29.455Z,25.4
2018-08-18T03:45:20.000Z,25.4
2018-08-18T03:46:09.894Z,25.4
2018-08-18T03:46:59.999Z,25.4
2018-08-18T03:47:50.037Z,25.4
2018-08-18T03:48:39.849Z,25.4
2018-08-18T03:49:29.609Z,25.4
2018-08-18T03:50:20.687Z,25.4
2018-08-18T03:51:11.081Z,25.4
2018-08-18T03:52:00.341Z,25.4
2018-08-18T03:52:51.216Z,25.4
2018-08-18T03:53:41.228Z,25.4
2018-08-18T03:54:31.096Z,25.4
2018-08-18T03:55:21.151Z,25.4
2018-08-18T03:56:11.484Z,25.4
2018-08-18T03:57:00.916Z,25.4
2018-08-18T03:57:51.032Z,25.4
2018-08-18T03:58:41.353Z,25.4
2018-08-18T03:59:31.154Z,25.4
2018-08-18T04:00:21.472Z,25.4
2018-08-18T04:01:10.413Z,25.4
2018-08-18T04:02:02.972Z,25.4
2018-08-18T04:02:52.030Z,25.4
2018-08-18T04:03:41.423Z,25.4
2018-08-18T04:04:31.829Z,25.4
2018-08-18T04:05:21.530Z,25.4
2018-08-18T04:06:11.314Z,25.4
2018-08-18T04:07:01.750Z,25.4
2018-08-18T04:07:52.032Z,25.4
2018-08-18T04:08:42.077Z,25.4
2018-08-18T04:09:32.265Z,25.4
2018-08-18T04:10:21.920Z,25.4
2018-08-18T04:11:12.037Z,25.4
2018-08-18T04:12:01.244Z,25.4
2018-08-18T04:12:52.445Z,25.4
2018-08-18T04:13:42.240Z,25.4
2018-08-18T04:14:31.386Z,25.4
2018-08-18T04:15:21.740Z,25.4
2018-08-18T04:16:12.107Z,25.4
2018-08-18T04:17:01.928Z,25.4
2018-08-18T04:17:52.601Z,25.4
2018-08-18T04:18:42.565Z,25.4
2018-08-18T04:19:32.962Z,25.4
2018-08-18T04:20:23.283Z,25.4
2018-08-18T04:21:13.367Z,25.4
2018-08-18T04:22:02.930Z,25.4
2018-08-18T04:22:52.921Z,25.4
2018-08-18T04:23:42.106Z,25.4
2018-08-18T04:24:33.352Z,25.4
2018-08-18T04:25:24.964Z,25.4
2018-08-18T04:26:13.517Z,25.4
2018-08-18T04:27:03.025Z,25.4
2018-08-18T04:27:53.394Z,25.4
2018-08-18T04:28:43.937Z,25.4
2018-08-18T04:29:33.463Z,25.4
2018-08-18T04:30:23.294Z,25.4
2018-08-18T04:31:13.574Z,25.4
2018-08-18T04:32:04.173Z,25.4
2018-08-18T04:32:54.365Z,25.4
2018-08-18T04:33:44.331Z,25.4
2018-08-18T04:34:34.433Z,25.4
2018-08-18T04:35:25.084Z,25.4
2018-08-18T04:36:14.237Z,25.4
2018-08-18T04:37:04.072Z,25.4
2018-08-18T04:37:54.448Z,25.4
2018-08-18T04:38:43.863Z,25.4
2018-08-18T04:39:33.938Z,25.4
2018-08-18T04:40:23.931Z,25.4
2018-08-18T04:41:14.626Z,25.4
2018-08-18T04:42:03.791Z,25.4
2018-08-18T04:42:54.818Z,25.4
2018-08-18T04:43:45.442Z,25.4
2018-08-18T04:44:34.557Z,25.4
2018-08-18T04:45:24.605Z,25.4
2018-08-18T04:46:14.958Z,25.4
2018-08-18T04:47:04.478Z,25.4
2018-08-18T04:47:55.448Z,25.4
2018-08-18T04:48:45.204Z,25.4
2018-08-18T05:06:53.515Z,25.4
2018-08-18T05:07:43.479Z,25.4
2018-08-18T05:08:34.138Z,25.4
2018-08-18T05:09:23.972Z,25.4
2018-08-18T05:10:14.233Z,25.4
2018-08-18T05:11:04.068Z,25.4
2018-08-18T05:11:54.700Z,25.4
2018-08-18T05:12:44.408Z,25.4
2018-08-18T05:13:34.498Z,25.4
2018-08-18T05:14:24.036Z,25.4
2018-08-18T05:15:14.334Z,25.5
2018-08-18T05:16:03.906Z,25.4
2018-08-18T05:16:54.646Z,25.5
2018-08-18T05:17:44.301Z,25.5
2018-08-18T05:18:33.814Z,25.4
2018-08-18T05:19:24.942Z,25.5
2018-08-18T05:20:15.081Z,25.5
2018-08-18T05:21:04.018Z,25.5
2018-08-18T05:21:54.931Z,25.5
2018-08-18T05:22:44.421Z,25.5
2018-08-18T05:23:35.065Z,25.5
2018-08-18T05:24:24.868Z,25.5
2018-08-18T05:25:14.322Z,25.5
2018-08-18T05:26:04.965Z,25.5
2018-08-18T05:26:55.344Z,25.5
2018-08-18T05:27:44.793Z,25.5
2018-08-18T05:28:35.235Z,25.5
2018-08-18T05:29:24.984Z,25.5
2018-08-18T05:30:15.009Z,25.5
2018-08-18T05:31:05.042Z,25.5
2018-08-18T05:31:55.158Z,25.5
2018-08-18T05:32:45.750Z,25.5
2018-08-18T05:33:35.218Z,25.5
2018-08-18T05:34:26.147Z,25.5
2018-08-18T05:35:16.193Z,25.5
2018-08-18T05:36:05.716Z,25.6
2018-08-18T05:36:55.708Z,25.6
2018-08-18T05:37:45.782Z,25.5
2018-08-18T05:38:36.164Z,25.6
2018-08-18T05:39:25.944Z,25.6
2018-08-18T05:40:15.468Z,25.6
2018-08-18T05:41:06.067Z,25.6
2018-08-18T05:41:56.665Z,25.6
2018-08-18T05:42:46.453Z,25.6
2018-08-18T05:43:36.826Z,25.6
2018-08-18T05:44:26.579Z,25.6
2018-08-18T05:45:16.310Z,25.6
2018-08-18T05:46:05.941Z,25.6
2018-08-18T05:46:57.031Z,25.6
2018-08-18T05:47:48.206Z,25.6
2018-08-18T05:48:36.651Z,25.6
2018-08-18T05:49:27.271Z,25.6
2018-08-18T05:50:17.050Z,25.6
2018-08-18T05:51:06.801Z,25.6
2018-08-18T05:51:57.458Z,25.6
2018-08-18T05:52:47.561Z,25.6
2018-08-18T05:53:37.415Z,25.6
2018-08-18T05:54:27.396Z,25.6
2018-08-18T05:55:17.783Z,25.6
2018-08-18T05:56:06.685Z,25.6
2018-08-18T05:56:57.066Z,25.6
2018-08-18T05:57:47.114Z,25.6
2018-08-18T05:58:37.725Z,25.6
2018-08-18T05:59:26.963Z,25.6
2018-08-18T06:00:17.329Z,25.6
2018-08-18T06:01:07.371Z,25.6
2018-08-18T06:01:58.001Z,25.6
2018-08-18T06:02:47.717Z,25.5
2018-08-18T06:03:38.127Z,25.5
2018-08-18T06:04:28.487Z,25.5
2018-08-18T06:05:17.951Z,25.5
2018-08-18T06:06:08.071Z,25.5
2018-08-18T06:06:56.971Z,25.5
2018-08-18T06:07:48.121Z,25.5
2018-08-18T06:08:38.512Z,25.4
2018-08-18T06:09:28.593Z,25.4
2018-08-18T06:10:18.556Z,25.4
2018-08-18T06:11:08.656Z,25.4
2018-08-18T06:11:58.447Z,25.4
2018-08-18T06:12:49.048Z,25.3
2018-08-18T06:13:38.872Z,25.3
2018-08-18T06:14:28.597Z,25.3
2018-08-18T06:15:19.246Z,25.3
2018-08-18T06:16:09.004Z,25.3
2018-08-18T06:16:58.258Z,25.2
2018-08-18T06:17:48.270Z,25.2
2018-08-18T06:18:39.212Z,25.2
2018-08-18T06:19:29.005Z,25.3
2018-08-18T06:20:18.603Z,25.2
2018-08-18T06:21:09.395Z,25.2
2018-08-18T06:21:59.290Z,25.2
2018-08-18T06:22:49.247Z,25.2
2018-08-18T06:23:39.124Z,25.2
2018-08-18T06:24:29.968Z,25.3
2018-08-18T06:25:19.763Z,25.2
2018-08-18T06:26:09.225Z,25.2
2018-08-18T06:26:59.921Z,25.2
2018-08-18T06:27:49.416Z,25.2
2018-08-18T06:28:38.943Z,25.2
2018-08-18T06:29:29.808Z,25.2
2018-08-18T06:30:19.047Z,25.2
2018-08-18T06:31:10.242Z,25.2
2018-08-18T06:32:00.120Z,25.2
2018-08-18T06:32:49.808Z,25.2
2018-08-18T06:33:40.426Z,25.2
2018-08-18T06:34:30.741Z,25.2
2018-08-18T06:35:20.348Z,25.1
2018-08-18T06:36:10.364Z,25.1
2018-08-18T06:37:00.449Z,25.1
2018-08-18T06:37:49.899Z,25.1
2018-08-18T06:38:39.973Z,25.1
2018-08-18T06:39:30.289Z,25.1
2018-08-18T06:40:20.363Z,25.1
2018-08-18T06:41:11.567Z,25.1
2018-08-18T06:42:01.726Z,25.1
2018-08-18T06:42:50.918Z,25.1
2018-08-18T06:43:40.623Z,25.1
2018-08-18T06:44:30.962Z,25
2018-08-18T06:45:21.314Z,25
2018-08-18T06:46:11.336Z,25
2018-08-18T06:47:01.379Z,25
2018-08-18T06:47:51.510Z,25
2018-08-18T06:48:40.706Z,24.9
2018-08-18T06:49:30.994Z,24.9
2018-08-18T06:50:21.374Z,24.9
2018-08-18T06:51:11.224Z,25
2018-08-18T06:52:01.520Z,25
2018-08-18T06:52:51.895Z,25
2018-08-18T06:53:41.431Z,25
2018-08-18T06:54:33.821Z,25
2018-08-18T06:55:23.751Z,25
2018-08-18T06:56:12.384Z,25
2018-08-18T06:57:02.869Z,25
2018-08-18T06:57:51.414Z,25
2018-08-18T06:58:42.053Z,25.1
2018-08-18T06:59:32.339Z,25.1
2018-08-18T07:00:22.427Z,25.1
2018-08-18T07:01:12.554Z,25.1
2018-08-18T07:02:02.905Z,25.1
2018-08-18T07:02:51.796Z,25.1
2018-08-18T07:03:42.325Z,25.1
2018-08-18T07:04:33.047Z,25.1
2018-08-18T07:05:22.626Z,25.1
2018-08-18T07:06:12.944Z,25.1
2018-08-18T07:07:02.714Z,25.1
2018-08-18T07:07:53.330Z,25.1
2018-08-18T07:08:42.832Z,25.1
2018-08-18T07:09:32.904Z,25.1
2018-08-18T07:10:22.436Z,25.1
2018-08-18T07:11:13.042Z,25.1
2018-08-18T07:12:03.124Z,25.1
2018-08-18T07:12:53.196Z,25.1
2018-08-18T07:13:42.969Z,25.1
2018-08-18T07:14:32.699Z,25.1
2018-08-18T07:15:22.243Z,25.1
2018-08-18T07:16:12.860Z,25.1
2018-08-18T07:17:03.485Z,25.1
2018-08-18T07:17:53.580Z,25.1
2018-08-18T07:18:43.665Z,25.1
2018-08-18T07:19:34.828Z,25.1
2018-08-18T07:20:23.843Z,25.1
2018-08-18T07:21:13.752Z,25.1
2018-08-18T07:22:03.577Z,25.1
2018-08-18T07:22:54.285Z,25.1
2018-08-18T07:23:44.219Z,25.1
2018-08-18T07:24:33.757Z,25.1
2018-08-18T07:25:24.389Z,25.1
2018-08-18T07:26:14.464Z,25.1
2018-08-18T07:27:04.457Z,25.2
2018-08-18T07:27:54.824Z,25.1
2018-08-18T07:28:46.167Z,25.2
2018-08-18T07:29:34.966Z,25.2
2018-08-18T07:30:24.451Z,25.2
2018-08-18T07:31:14.570Z,25.2
2018-08-18T07:32:04.711Z,25.2
2018-08-18T07:32:54.685Z,25.2
2018-08-18T07:33:45.412Z,25.2
2018-08-18T07:34:34.899Z,25.2
2018-08-18T07:35:24.921Z,25.2
2018-08-18T07:36:15.253Z,25.3
2018-08-18T07:37:05.992Z,25.2
2018-08-18T07:37:54.797Z,25.3
2018-08-18T07:38:45.199Z,25.3
2018-08-18T07:39:35.276Z,25.3
2018-08-18T07:40:25.118Z,25.3
2018-08-18T07:41:14.819Z,25.3
2018-08-18T07:42:05.151Z,25.3
2018-08-18T07:42:55.788Z,25.3
2018-08-18T07:43:45.285Z,25.3
2018-08-18T07:44:35.345Z,25.3
2018-08-18T07:45:25.410Z,25.3
2018-08-18T07:46:16.717Z,25.3
2018-08-18T07:47:06.110Z,25.3
2018-08-18T07:47:56.152Z,25.3
2018-08-18T07:48:45.953Z,25.3
2018-08-18T07:49:35.538Z,25.3
2018-08-18T07:50:26.706Z,25.3
2018-08-18T07:51:15.575Z,25.3
2018-08-18T07:52:06.195Z,25.3
2018-08-18T07:52:56.547Z,25.3
2018-08-18T07:53:46.730Z,25.3
2018-08-18T07:54:36.448Z,25.3
2018-08-18T07:55:26.446Z,25.3
2018-08-18T07:56:17.081Z,25.3
2018-08-18T07:57:06.516Z,25.4
2018-08-18T07:57:56.429Z,25.3
2018-08-18T07:58:47.242Z,25.3
2018-08-18T07:59:36.988Z,25.4
2018-08-18T08:00:27.361Z,25.3
2018-08-18T08:01:17.454Z,25.4
2018-08-18T08:02:07.515Z,25.4
2018-08-18T08:02:57.242Z,25.3
2018-08-18T08:03:47.633Z,25.4
2018-08-18T08:04:36.829Z,25.4
2018-08-18T08:05:27.247Z,25.4
2018-08-18T08:06:17.529Z,25.4
2018-08-18T08:07:07.323Z,25.4
2018-08-18T08:07:57.651Z,25.4
2018-08-18T08:08:47.729Z,25.4
2018-08-18T08:09:37.042Z,25.4
2018-08-18T08:10:27.525Z,25.4
2018-08-18T08:11:17.960Z,25.4
2018-08-18T08:12:08.278Z,25.4
2018-08-18T08:12:59.240Z,25.4
2018-08-18T08:13:48.139Z,25.4
2018-08-18T08:14:38.508Z,25.4
2018-08-18T08:15:28.278Z,25.4
2018-08-18T08:16:18.341Z,25.4
2018-08-18T08:17:08.115Z,25.4
2018-08-18T08:17:58.486Z,25.4
2018-08-18T08:18:48.271Z,25.4
2018-08-18T08:19:38.095Z,25.4
2018-08-18T08:20:29.094Z,25.4
2018-08-18T08:21:18.019Z,25.4
2018-08-18T08:22:08.250Z,25.4
2018-08-18T08:22:58.996Z,25.4
2018-08-18T08:23:48.362Z,25.4
2018-08-18T08:24:38.714Z,25.4
2018-08-18T08:25:29.339Z,25.4
2018-08-18T08:26:19.402Z,25.4
2018-08-18T08:27:09.162Z,25.4
2018-08-18T08:27:59.039Z,25.4
2018-08-18T08:28:49.615Z,25.5
2018-08-18T08:29:39.498Z,25.4
2018-08-18T08:30:29.907Z,25.5
2018-08-18T08:31:19.494Z,25.5
2018-08-18T08:32:09.818Z,25.5
2018-08-18T08:33:00.134Z,25.5
2018-08-18T08:33:50.242Z,25.5
2018-08-18T08:34:40.142Z,25.5
2018-08-18T08:35:29.998Z,25.5
2018-08-18T08:36:19.577Z,25.5
2018-08-18T08:37:10.449Z,25.5
2018-08-18T08:38:00.049Z,25.5
2018-08-18T08:38:49.509Z,25.5
2018-08-18T08:39:40.786Z,25.5
2018-08-18T08:40:30.135Z,25.5
2018-08-18T08:41:22.049Z,25.5
2018-08-18T08:42:09.753Z,25.5
2018-08-18T08:43:02.562Z,25.5
2018-08-18T08:43:50.579Z,25.5
2018-08-18T08:44:40.627Z,25.5
2018-08-18T08:45:31.701Z,25.5
2018-08-18T08:46:20.593Z,25.5
2018-08-18T08:47:10.896Z,25.5
2018-08-18T08:48:00.780Z,25.5
2018-08-18T08:48:50.870Z,25.6
2018-08-18T08:49:41.202Z,25.6
2018-08-18T08:50:31.388Z,25.6
2018-08-18T08:51:21.540Z,25.6
2018-08-18T08:52:10.904Z,25.6
2018-08-18T08:53:01.150Z,25.6
2018-08-18T08:53:51.778Z,25.6
2018-08-18T08:54:42.093Z,25.6
2018-08-18T08:55:31.103Z,25.6
2018-08-18T08:56:22.004Z,25.6
2018-08-18T08:57:11.451Z,25.6
2018-08-18T08:58:01.968Z,25.6
2018-08-18T08:58:52.748Z,25.6
2018-08-18T08:59:42.733Z,25.6
2018-08-18T09:00:31.512Z,25.6
2018-08-18T09:01:22.102Z,25.6
2018-08-18T09:02:12.024Z,25.6
2018-08-18T09:03:01.856Z,25.6
2018-08-18T09:03:52.259Z,25.6
2018-08-18T09:04:41.284Z,25.6
2018-08-18T09:21:14.721Z,25.6
2018-08-18T09:22:05.327Z,25.7
2018-08-18T09:22:55.671Z,25.7
2018-08-18T09:23:44.918Z,25.7
2018-08-18T09:24:35.510Z,25.6
2018-08-18T09:25:25.726Z,25.7
2018-08-18T09:26:17.428Z,25.7
2018-08-18T09:27:05.134Z,25.7
2018-08-18T09:27:56.567Z,25.7
2018-08-18T09:28:46.135Z,25.7
2018-08-18T09:29:36.459Z,25.7
2018-08-18T09:30:26.551Z,25.7
2018-08-18T09:31:16.902Z,25.7
2018-08-18T09:32:06.474Z,25.7
2018-08-18T09:32:56.764Z,25.7
2018-08-18T09:33:47.154Z,25.7
2018-08-18T09:34:36.641Z,25.7
2018-08-18T09:35:26.976Z,25.7
2018-08-18T09:36:18.355Z,25.7
2018-08-18T09:37:07.119Z,25.7
2018-08-18T09:37:57.432Z,25.7
2018-08-18T09:38:47.226Z,25.7
2018-08-18T09:39:37.286Z,25.7
2018-08-18T09:40:27.662Z,25.7
2018-08-18T09:41:17.442Z,25.7
2018-08-18T09:42:07.216Z,25.7
2018-08-18T09:42:57.532Z,25.7
2018-08-18T09:43:47.617Z,25.8
2018-08-18T09:44:37.967Z,25.8
2018-08-18T09:45:28.178Z,25.7
2018-08-18T09:46:17.105Z,25.8
2018-08-18T09:47:07.370Z,25.8
2018-08-18T09:47:57.903Z,25.8
2018-08-18T09:48:48.247Z,25.8
2018-08-18T09:49:37.460Z,25.8
2018-08-18T09:50:27.520Z,25.8
2018-08-18T09:51:18.115Z,25.8
2018-08-18T09:52:08.184Z,25.8
2018-08-18T09:52:58.061Z,25.8
2018-08-18T09:53:47.033Z,25.8
2018-08-18T09:54:38.684Z,25.8
2018-08-18T09:55:26.694Z,25.8
2018-08-18T09:56:18.006Z,25.8
2018-08-18T09:57:08.678Z,25.8
2018-08-18T09:57:58.947Z,25.8
2018-08-18T09:58:48.595Z,25.8
2018-08-18T09:59:38.559Z,25.8
2018-08-18T10:00:28.892Z,25.8
2018-08-18T10:01:18.780Z,25.8
2018-08-18T10:02:09.060Z,25.8
2018-08-18T10:02:59.323Z,25.8
2018-08-18T10:03:48.371Z,25.8
2018-08-18T10:04:37.938Z,25.8
2018-08-18T10:05:29.504Z,25.8
2018-08-18T10:06:19.884Z,25.8
2018-08-18T10:07:09.745Z,25.8
2018-08-18T10:07:59.778Z,25.8
2018-08-18T10:08:49.841Z,25.8
2018-08-18T10:09:39.131Z,25.8
2018-08-18T10:10:29.698Z,25.8
2018-08-18T10:11:19.896Z,25.8
2018-08-18T10:12:09.920Z,25.8
2018-08-18T10:12:59.627Z,25.8
2018-08-18T10:13:49.949Z,25.8
2018-08-18T10:14:40.016Z,25.8
2018-08-18T10:15:31.178Z,25.8
2018-08-18T10:16:20.193Z,25.8
2018-08-18T10:17:10.241Z,25.8
2018-08-18T10:18:00.288Z,25.8
2018-08-18T10:18:49.943Z,25.8
2018-08-18T10:19:40.121Z,25.8
2018-08-18T10:20:30.219Z,25.8
2018-08-18T10:21:20.540Z,25.8
2018-08-18T10:22:09.805Z,25.8
2018-08-18T10:23:00.672Z,25.8
2018-08-18T10:23:50.722Z,25.8
2018-08-18T10:24:40.736Z,25.8
2018-08-18T10:25:30.846Z,25.8
2018-08-18T10:26:20.585Z,25.8
2018-08-18T10:27:11.560Z,25.8
2018-08-18T10:28:01.308Z,25.8
2018-08-18T10:28:50.769Z,25.8
2018-08-18T10:29:41.436Z,25.8
2018-08-18T10:30:31.193Z,25.8
2018-08-18T10:31:20.735Z,25.8
2018-08-18T10:32:11.314Z,25.8
2018-08-18T10:33:01.403Z,25.8
2018-08-18T10:33:51.463Z,25.8
2018-08-18T10:34:41.542Z,25.8
2018-08-18T10:35:31.902Z,25.8
2018-08-18T10:36:21.969Z,25.8
2018-08-18T10:37:11.469Z,25.8
2018-08-18T10:38:02.162Z,25.8
2018-08-18T10:38:51.882Z,25.8
2018-08-18T10:39:41.924Z,25.8
2018-08-18T10:40:32.274Z,25.8
2018-08-18T10:41:22.045Z,25.8
2018-08-18T10:42:14.049Z,25.8
2018-08-18T10:43:02.238Z,25.8
2018-08-18T10:43:52.401Z,25.8
2018-08-18T10:44:42.651Z,25.8
2018-08-18T10:45:32.449Z,25.8
2018-08-18T10:46:22.773Z,25.8
2018-08-18T10:47:12.559Z,25.8
2018-08-18T10:48:02.935Z,25.8
2018-08-18T10:48:52.710Z,25.8
2018-08-18T10:49:42.751Z,25.8
2018-08-18T10:50:32.567Z,25.8
2018-08-18T10:51:22.632Z,25.8
2018-08-18T10:52:12.947Z,25.8
2018-08-18T10:53:02.745Z,25.8
2018-08-18T10:53:53.111Z,25.8
2018-08-18T10:54:43.162Z,25.8
2018-08-18T10:55:33.243Z,25.8
2018-08-18T10:56:23.289Z,25.8
2018-08-18T10:57:13.360Z,25.8
2018-08-18T10:58:03.436Z,25.8
2018-08-18T10:58:53.489Z,25.8
2018-08-18T10:59:42.976Z,25.8
2018-08-18T11:00:32.985Z,25.8
2018-08-18T11:01:22.238Z,25.8
2018-08-18T11:02:13.974Z,25.8
2018-08-18T11:03:04.089Z,25.8
2018-08-18T11:03:54.657Z,25.8
2018-08-18T11:04:43.877Z,25.8
2018-08-18T11:05:33.985Z,25.8
2018-08-18T11:06:24.273Z,25.8
2018-08-18T11:07:12.708Z,25.8
2018-08-18T11:08:04.193Z,25.8
2018-08-18T11:08:54.540Z,25.8
2018-08-18T11:09:43.717Z,25.8
2018-08-18T11:10:34.399Z,25.8
2018-08-18T11:11:24.469Z,25.8
2018-08-18T11:12:13.991Z,25.8
2018-08-18T11:13:04.547Z,25.8
2018-08-18T11:13:54.884Z,25.8
2018-08-18T11:14:44.388Z,25.8
2018-08-18T11:15:34.749Z,25.8
2018-08-18T11:16:24.511Z,25.8
2018-08-18T11:17:14.370Z,25.8
2018-08-18T11:18:05.280Z,25.8
2018-08-18T11:18:55.329Z,25.8
2018-08-18T11:19:45.425Z,25.8
2018-08-18T11:20:34.929Z,25.8
2018-08-18T11:21:24.981Z,25.8
2018-08-18T11:22:15.325Z,25.8
2018-08-18T11:23:05.692Z,25.8
2018-08-18T11:23:54.677Z,25.8
2018-08-18T11:24:45.526Z,25.8
2018-08-18T11:25:35.017Z,25.8
2018-08-18T11:26:25.634Z,25.8
2018-08-18T11:27:15.431Z,25.8
2018-08-18T11:28:05.575Z,25.8
2018-08-18T11:28:57.777Z,25.8
2018-08-18T11:29:45.596Z,25.8
2018-08-18T11:30:35.418Z,25.8
2018-08-18T11:31:25.782Z,25.8
2018-08-18T11:32:15.560Z,25.8
2018-08-18T11:33:06.476Z,25.8
2018-08-18T11:33:55.957Z,25.8
2018-08-18T11:34:45.776Z,25.8
2018-08-18T11:35:35.463Z,25.8
2018-08-18T11:36:26.071Z,25.9
2018-08-18T11:37:16.199Z,25.9
2018-08-18T11:38:06.801Z,25.9
2018-08-18T11:38:55.570Z,25.9
2018-08-18T11:39:46.650Z,25.9
2018-08-18T11:40:36.710Z,25.9
2018-08-18T11:41:27.298Z,25.9
2018-08-18T11:42:16.515Z,25.9
2018-08-18T11:43:07.211Z,25.9
2018-08-18T11:43:57.267Z,25.9
2018-08-18T11:44:46.753Z,25.9
2018-08-18T11:45:36.583Z,25.9
2018-08-18T11:46:26.918Z,25.9
2018-08-18T11:47:17.369Z,25.9
2018-08-18T11:48:07.289Z,25.9
2018-08-18T11:48:57.431Z,25.9
2018-08-18T11:49:46.341Z,25.9
2018-08-18T11:50:37.754Z,25.9
2018-08-18T11:51:27.296Z,25.9
2018-08-18T11:52:17.728Z,25.9
2018-08-18T11:53:07.445Z,25.9
2018-08-18T11:53:57.777Z,25.9
2018-08-18T11:54:47.619Z,25.9
2018-08-18T11:55:38.195Z,25.9
2018-08-18T11:56:28.272Z,25.9
2018-08-18T11:57:17.495Z,25.9
2018-08-18T11:58:08.380Z,26